sensor_id;sensor_type;location;lat;lon;timestamp;pressure;altitude;pressure_sealevel;temperature;humidity
36242;BME280;22283;42.748;12.732;2023-03-29T00:04:51;99072.44;;;2.21;51.70
36242;BME280;22283;42.748;12.732;2023-03-29T00:09:52;99070.00;;;2.15;52.02
36242;BME280;22283;42.748;12.732;2023-03-29T00:14:53;99062.84;;;2.23;51.66
36242;BME280;22283;42.748;12.732;2023-03-29T00:19:54;99051.63;;;2.54;49.93
36242;BME280;22283;42.748;12.732;2023-03-29T00:24:55;99040.84;;;2.66;48.19
36242;BME280;22283;42.748;12.732;2023-03-29T00:29:56;99051.44;;;2.92;46.77
36242;BME280;22283;42.748;12.732;2023-03-29T00:34:58;99049.22;;;2.77;48.61
36242;BME280;22283;42.748;12.732;2023-03-29T00:40:01;99037.06;;;2.43;49.89
36242;BME280;22283;42.748;12.732;2023-03-29T00:50:21;99039.81;;;2.03;52.25
36242;BME280;22283;42.748;12.732;2023-03-29T00:55:26;99046.75;;;2.04;51.24
36242;BME280;22283;42.748;12.732;2023-03-29T01:00:33;99050.09;;;2.11;50.90
36242;BME280;22283;42.748;12.732;2023-03-29T01:05:38;99050.03;;;2.12;51.46
36242;BME280;22283;42.748;12.732;2023-03-29T01:10:47;99043.34;;;2.36;51.07
36242;BME280;22283;42.748;12.732;2023-03-29T01:15:51;99046.94;;;2.66;49.31
36242;BME280;22283;42.748;12.732;2023-03-29T01:31:30;99038.22;;;3.28;45.38
36242;BME280;22283;42.748;12.732;2023-03-29T01:36:36;99026.06;;;3.57;43.66
36242;BME280;22283;42.748;12.732;2023-03-29T01:42:13;99034.50;;;3.93;41.80
36242;BME280;22283;42.748;12.732;2023-03-29T01:47:18;99024.31;;;4.12;41.17
36242;BME280;22283;42.748;12.732;2023-03-29T01:52:29;99032.78;;;4.20;41.82
36242;BME280;22283;42.748;12.732;2023-03-29T01:57:34;99039.81;;;4.18;41.99
36242;BME280;22283;42.748;12.732;2023-03-29T02:02:38;99021.69;;;4.12;42.80
36242;BME280;22283;42.748;12.732;2023-03-29T02:07:43;99032.53;;;4.26;42.78
36242;BME280;22283;42.748;12.732;2023-03-29T02:12:45;99023.34;;;4.14;42.29
36242;BME280;22283;42.748;12.732;2023-03-29T02:17:47;99027.91;;;4.08;42.00
36242;BME280;22283;42.748;12.732;2023-03-29T02:28:18;99018.00;;;4.17;41.91
36242;BME280;22283;42.748;12.732;2023-03-29T02:33:30;99023.69;;;4.30;41.43
36242;BME280;22283;42.748;12.732;2023-03-29T02:38:33;99014.31;;;4.23;41.27
36242;BME280;22283;42.748;12.732;2023-03-29T02:43:34;99037.28;;;4.41;40.68
36242;BME280;22283;42.748;12.732;2023-03-29T02:48:36;99030.75;;;4.28;41.30
36242;BME280;22283;42.748;12.732;2023-03-29T02:54:13;99048.06;;;4.32;41.87
36242;BME280;22283;42.748;12.732;2023-03-29T02:59:17;99038.13;;;3.89;44.52
36242;BME280;22283;42.748;12.732;2023-03-29T03:04:30;99053.09;;;3.56;45.72
36242;BME280;22283;42.748;12.732;2023-03-29T03:09:31;99045.38;;;3.51;44.91
36242;BME280;22283;42.748;12.732;2023-03-29T03:14:32;99048.31;;;3.70;45.84
36242;BME280;22283;42.748;12.732;2023-03-29T03:19:34;99048.69;;;3.58;46.15
36242;BME280;22283;42.748;12.732;2023-03-29T03:24:35;99033.59;;;3.66;45.35
36242;BME280;22283;42.748;12.732;2023-03-29T03:29:36;99032.03;;;3.60;46.68
36242;BME280;22283;42.748;12.732;2023-03-29T03:35:07;99035.38;;;3.65;47.65
36242;BME280;22283;42.748;12.732;2023-03-29T03:40:08;99027.38;;;3.70;46.17
36242;BME280;22283;42.748;12.732;2023-03-29T03:45:12;99033.97;;;4.10;44.45
36242;BME280;22283;42.748;12.732;2023-03-29T03:50:53;99011.00;;;4.18;44.91
36242;BME280;22283;42.748;12.732;2023-03-29T03:55:54;98995.44;;;4.38;43.99
36242;BME280;22283;42.748;12.732;2023-03-29T04:01:01;98989.78;;;4.51;43.86
36242;BME280;22283;42.748;12.732;2023-03-29T04:06:12;99023.31;;;4.66;44.47
36242;BME280;22283;42.748;12.732;2023-03-29T04:11:32;99025.00;;;4.43;45.22
36242;BME280;22283;42.748;12.732;2023-03-29T04:16:33;98997.56;;;4.54;44.59
36242;BME280;22283;42.748;12.732;2023-03-29T04:21:50;98999.31;;;4.78;43.40
36242;BME280;22283;42.748;12.732;2023-03-29T04:26:52;99002.66;;;5.07;43.40
36242;BME280;22283;42.748;12.732;2023-03-29T04:31:57;98996.38;;;5.11;43.14
36242;BME280;22283;42.748;12.732;2023-03-29T04:37:17;98996.81;;;5.22;43.25
36242;BME280;22283;42.748;12.732;2023-03-29T04:42:24;98982.84;;;5.22;43.04
36242;BME280;22283;42.748;12.732;2023-03-29T04:47:25;98989.28;;;5.36;43.01
36242;BME280;22283;42.748;12.732;2023-03-29T04:52:40;98989.72;;;5.48;42.78
36242;BME280;22283;42.748;12.732;2023-03-29T04:57:42;98997.72;;;5.45;42.95
36242;BME280;22283;42.748;12.732;2023-03-29T05:02:52;98990.94;;;5.39;43.56
36242;BME280;22283;42.748;12.732;2023-03-29T05:07:54;98992.28;;;5.49;43.85
36242;BME280;22283;42.748;12.732;2023-03-29T05:13:00;98991.31;;;5.52;44.30
36242;BME280;22283;42.748;12.732;2023-03-29T05:18:02;98990.47;;;5.51;44.56
36242;BME280;22283;42.748;12.732;2023-03-29T05:23:04;98991.94;;;5.58;45.15
36242;BME280;22283;42.748;12.732;2023-03-29T05:28:40;98976.44;;;5.74;45.36
36242;BME280;22283;42.748;12.732;2023-03-29T05:33:41;98984.09;;;6.02;44.05
36242;BME280;22283;42.748;12.732;2023-03-29T05:38:43;98993.09;;;6.17;44.70
36242;BME280;22283;42.748;12.732;2023-03-29T05:43:46;98991.53;;;6.33;44.64
36242;BME280;22283;42.748;12.732;2023-03-29T05:48:47;98995.41;;;6.45;44.64
36242;BME280;22283;42.748;12.732;2023-03-29T05:53:50;98995.59;;;6.61;43.97
36242;BME280;22283;42.748;12.732;2023-03-29T05:58:53;99020.81;;;6.67;45.11
36242;BME280;22283;42.748;12.732;2023-03-29T06:03:56;99013.88;;;6.84;46.08
36242;BME280;22283;42.748;12.732;2023-03-29T06:09:05;99009.06;;;7.52;44.05
36242;BME280;22283;42.748;12.732;2023-03-29T06:14:18;99019.09;;;8.35;43.45
36242;BME280;22283;42.748;12.732;2023-03-29T06:19:25;99016.13;;;8.94;43.74
36242;BME280;22283;42.748;12.732;2023-03-29T06:24:28;99030.25;;;9.59;43.32
36242;BME280;22283;42.748;12.732;2023-03-29T06:29:35;99036.13;;;9.80;43.81
36242;BME280;22283;42.748;12.732;2023-03-29T06:34:36;99034.97;;;10.47;42.48
36242;BME280;22283;42.748;12.732;2023-03-29T06:39:53;99039.88;;;10.83;42.62
36242;BME280;22283;42.748;12.732;2023-03-29T06:44:59;99040.88;;;11.11;42.65
36242;BME280;22283;42.748;12.732;2023-03-29T06:50:00;99057.31;;;11.02;42.55
36242;BME280;22283;42.748;12.732;2023-03-29T06:55:06;99066.69;;;10.93;43.78
36242;BME280;22283;42.748;12.732;2023-03-29T07:00:09;99066.06;;;11.32;43.74
36242;BME280;22283;42.748;12.732;2023-03-29T07:05:36;99066.72;;;11.50;41.09
36242;BME280;22283;42.748;12.732;2023-03-29T07:10:44;99077.78;;;11.71;42.13
36242;BME280;22283;42.748;12.732;2023-03-29T07:16:05;99076.66;;;11.90;42.17
36242;BME280;22283;42.748;12.732;2023-03-29T07:21:27;99075.69;;;12.05;42.71
36242;BME280;22283;42.748;12.732;2023-03-29T07:26:28;99071.56;;;12.28;42.67
36242;BME280;22283;42.748;12.732;2023-03-29T07:31:30;99078.59;;;12.42;42.07
36242;BME280;22283;42.748;12.732;2023-03-29T07:36:54;99076.63;;;12.58;41.41
36242;BME280;22283;42.748;12.732;2023-03-29T07:41:56;99090.38;;;12.77;42.42
36242;BME280;22283;42.748;12.732;2023-03-29T07:47:00;99092.31;;;12.75;41.57
36242;BME280;22283;42.748;12.732;2023-03-29T07:52:01;99093.81;;;12.79;41.87
36242;BME280;22283;42.748;12.732;2023-03-29T07:57:03;99082.56;;;12.89;41.56
36242;BME280;22283;42.748;12.732;2023-03-29T08:02:16;99102.00;;;12.89;42.84
36242;BME280;22283;42.748;12.732;2023-03-29T08:07:19;99100.00;;;13.18;42.87
36242;BME280;22283;42.748;12.732;2023-03-29T08:12:26;99101.75;;;13.45;42.55
36242;BME280;22283;42.748;12.732;2023-03-29T08:17:31;99103.00;;;13.77;42.23
36242;BME280;22283;42.748;12.732;2023-03-29T08:22:32;99101.81;;;13.82;41.82
36242;BME280;22283;42.748;12.732;2023-03-29T08:27:57;99116.94;;;13.94;41.38
36242;BME280;22283;42.748;12.732;2023-03-29T08:33:20;99109.94;;;14.30;40.79
36242;BME280;22283;42.748;12.732;2023-03-29T08:38:30;99112.91;;;14.25;42.37
36242;BME280;22283;42.748;12.732;2023-03-29T08:49:04;99112.47;;;13.82;43.43
36242;BME280;22283;42.748;12.732;2023-03-29T08:54:14;99108.53;;;13.87;43.83
36242;BME280;22283;42.748;12.732;2023-03-29T08:59:39;99107.06;;;13.83;43.70
36242;BME280;22283;42.748;12.732;2023-03-29T09:04:43;99116.72;;;13.84;44.09
36242;BME280;22283;42.748;12.732;2023-03-29T09:10:20;99112.94;;;14.12;45.03
36242;BME280;22283;42.748;12.732;2023-03-29T09:15:36;99118.13;;;14.26;44.03
36242;BME280;22283;42.748;12.732;2023-03-29T09:20:59;99109.16;;;14.64;43.91
36242;BME280;22283;42.748;12.732;2023-03-29T09:31:42;99100.66;;;14.59;42.93
36242;BME280;22283;42.748;12.732;2023-03-29T09:36:56;99105.22;;;14.70;43.04
36242;BME280;22283;42.748;12.732;2023-03-29T09:42:04;99108.50;;;14.73;42.27
36242;BME280;22283;42.748;12.732;2023-03-29T09:47:43;99108.53;;;15.31;42.80
36242;BME280;22283;42.748;12.732;2023-03-29T09:52:48;99102.94;;;15.69;42.07
36242;BME280;22283;42.748;12.732;2023-03-29T09:57:57;99103.78;;;15.70;43.85
36242;BME280;22283;42.748;12.732;2023-03-29T10:03:00;99098.22;;;15.84;42.01
36242;BME280;22283;42.748;12.732;2023-03-29T10:08:20;99094.88;;;16.14;41.79
36242;BME280;22283;42.748;12.732;2023-03-29T10:13:29;99091.00;;;16.07;41.62
36242;BME280;22283;42.748;12.732;2023-03-29T10:18:33;99087.75;;;16.47;42.54
36242;BME280;22283;42.748;12.732;2023-03-29T10:23:38;99100.16;;;16.48;43.89
36242;BME280;22283;42.748;12.732;2023-03-29T10:28:39;99095.69;;;16.81;41.05
36242;BME280;22283;42.748;12.732;2023-03-29T10:33:39;99100.00;;;16.06;43.81
36242;BME280;22283;42.748;12.732;2023-03-29T10:38:43;99085.47;;;16.42;43.79
36242;BME280;22283;42.748;12.732;2023-03-29T10:43:46;99080.00;;;16.87;44.03
36242;BME280;22283;42.748;12.732;2023-03-29T10:53:57;99067.34;;;16.89;43.94
36242;BME280;22283;42.748;12.732;2023-03-29T11:09:45;99079.22;;;16.76;43.14
36242;BME280;22283;42.748;12.732;2023-03-29T11:31:14;99080.00;;;16.55;43.68
36242;BME280;22283;42.748;12.732;2023-03-29T11:41:55;99070.09;;;17.20;43.48
36242;BME280;22283;42.748;12.732;2023-03-29T11:47:11;99058.03;;;17.26;42.64
36242;BME280;22283;42.748;12.732;2023-03-29T11:57:36;99060.84;;;17.24;42.47
36242;BME280;22283;42.748;12.732;2023-03-29T12:03:09;99052.75;;;17.66;42.31
36242;BME280;22283;42.748;12.732;2023-03-29T12:13:42;99039.84;;;17.19;41.67
36242;BME280;22283;42.748;12.732;2023-03-29T12:18:47;99041.19;;;17.14;42.79
36242;BME280;22283;42.748;12.732;2023-03-29T12:23:49;99030.72;;;17.01;42.16
36242;BME280;22283;42.748;12.732;2023-03-29T12:40:19;99011.75;;;17.04;42.62
36242;BME280;22283;42.748;12.732;2023-03-29T12:45:45;99002.13;;;17.53;41.92
36242;BME280;22283;42.748;12.732;2023-03-29T12:50:52;98989.06;;;17.69;40.43
36242;BME280;22283;42.748;12.732;2023-03-29T13:01:04;98993.13;;;17.54;42.21
36242;BME280;22283;42.748;12.732;2023-03-29T13:06:08;98987.66;;;17.65;42.57
36242;BME280;22283;42.748;12.732;2023-03-29T13:11:34;98987.50;;;17.57;40.92
36242;BME280;22283;42.748;12.732;2023-03-29T13:16:39;98974.13;;;18.07;40.26
36242;BME280;22283;42.748;12.732;2023-03-29T13:27:19;98978.03;;;17.93;41.12
36242;BME280;22283;42.748;12.732;2023-03-29T13:32:47;98967.81;;;17.58;39.87
36242;BME280;22283;42.748;12.732;2023-03-29T13:38:18;98969.41;;;17.40;41.05
36242;BME280;22283;42.748;12.732;2023-03-29T13:49:02;98962.09;;;16.81;42.37
36242;BME280;22283;42.748;12.732;2023-03-29T13:54:16;98966.38;;;16.93;41.62
36242;BME280;22283;42.748;12.732;2023-03-29T14:00:09;98952.13;;;16.30;41.57
36242;BME280;22283;42.748;12.732;2023-03-29T14:04:49;98954.13;;;16.16;43.31
36242;BME280;22283;42.748;12.732;2023-03-29T14:09:56;98954.16;;;16.37;43.80
36242;BME280;22283;42.748;12.732;2023-03-29T14:15:01;98959.00;;;16.43;42.28
36242;BME280;22283;42.748;12.732;2023-03-29T14:20:04;98946.56;;;16.75;42.72
36242;BME280;22283;42.748;12.732;2023-03-29T14:25:15;98951.00;;;16.85;42.14
36242;BME280;22283;42.748;12.732;2023-03-29T14:35:27;98953.72;;;16.74;42.99
36242;BME280;22283;42.748;12.732;2023-03-29T14:40:30;98939.28;;;16.77;42.51
36242;BME280;22283;42.748;12.732;2023-03-29T14:45:31;98935.97;;;16.94;41.77
36242;BME280;22283;42.748;12.732;2023-03-29T14:50:32;98923.59;;;16.93;41.65
36242;BME280;22283;42.748;12.732;2023-03-29T14:55:34;98930.06;;;16.90;41.16
36242;BME280;22283;42.748;12.732;2023-03-29T15:00:40;98916.84;;;16.89;42.08
36242;BME280;22283;42.748;12.732;2023-03-29T15:06:03;98921.34;;;16.88;42.29
36242;BME280;22283;42.748;12.732;2023-03-29T15:11:14;98913.97;;;16.81;42.40
36242;BME280;22283;42.748;12.732;2023-03-29T15:16:23;98909.66;;;16.68;42.70
36242;BME280;22283;42.748;12.732;2023-03-29T15:21:33;98905.88;;;16.71;42.84
36242;BME280;22283;42.748;12.732;2023-03-29T15:26:36;98908.94;;;16.66;42.98
36242;BME280;22283;42.748;12.732;2023-03-29T15:31:40;98908.50;;;16.61;43.71
36242;BME280;22283;42.748;12.732;2023-03-29T15:36:44;98897.09;;;16.38;43.69
36242;BME280;22283;42.748;12.732;2023-03-29T15:41:47;98902.44;;;16.38;43.54
36242;BME280;22283;42.748;12.732;2023-03-29T15:46:50;98910.88;;;16.22;43.80
36242;BME280;22283;42.748;12.732;2023-03-29T15:51:52;98907.81;;;16.06;44.89
36242;BME280;22283;42.748;12.732;2023-03-29T15:56:58;98896.78;;;15.99;44.75
36242;BME280;22283;42.748;12.732;2023-03-29T16:02:01;98903.31;;;15.74;45.47
36242;BME280;22283;42.748;12.732;2023-03-29T16:07:08;98902.88;;;15.36;45.79
36242;BME280;22283;42.748;12.732;2023-03-29T16:12:10;98900.25;;;15.02;46.77
36242;BME280;22283;42.748;12.732;2023-03-29T16:17:11;98907.50;;;14.66;47.77
36242;BME280;22283;42.748;12.732;2023-03-29T16:22:13;98907.84;;;14.26;48.37
36242;BME280;22283;42.748;12.732;2023-03-29T16:27:14;98911.13;;;13.95;49.65
36242;BME280;22283;42.748;12.732;2023-03-29T16:32:16;98915.25;;;13.75;49.87
36242;BME280;22283;42.748;12.732;2023-03-29T16:37:16;98912.94;;;13.46;50.66
36242;BME280;22283;42.748;12.732;2023-03-29T16:42:17;98908.81;;;13.29;51.20
36242;BME280;22283;42.748;12.732;2023-03-29T16:47:18;98914.66;;;13.09;52.31
36242;BME280;22283;42.748;12.732;2023-03-29T16:52:18;98921.50;;;12.88;53.17
36242;BME280;22283;42.748;12.732;2023-03-29T16:57:19;98922.38;;;12.75;53.87
36242;BME280;22283;42.748;12.732;2023-03-29T17:02:20;98904.53;;;12.52;54.41
36242;BME280;22283;42.748;12.732;2023-03-29T17:07:20;98921.81;;;12.45;55.30
36242;BME280;22283;42.748;12.732;2023-03-29T17:12:21;98917.94;;;12.23;55.81
36242;BME280;22283;42.748;12.732;2023-03-29T17:17:22;98925.47;;;12.04;56.89
36242;BME280;22283;42.748;12.732;2023-03-29T17:22:24;98929.31;;;11.86;58.24
36242;BME280;22283;42.748;12.732;2023-03-29T17:27:24;98934.06;;;11.66;59.40
36242;BME280;22283;42.748;12.732;2023-03-29T17:32:25;98943.41;;;11.45;61.04
36242;BME280;22283;42.748;12.732;2023-03-29T17:37:26;98961.13;;;11.30;62.43
36242;BME280;22283;42.748;12.732;2023-03-29T17:42:27;98956.03;;;11.13;63.74
36242;BME280;22283;42.748;12.732;2023-03-29T17:47:28;98970.22;;;10.97;65.06
36242;BME280;22283;42.748;12.732;2023-03-29T17:52:29;98975.88;;;10.91;66.08
36242;BME280;22283;42.748;12.732;2023-03-29T17:57:30;98983.63;;;10.80;66.98
36242;BME280;22283;42.748;12.732;2023-03-29T18:02:31;98989.03;;;10.78;68.17
36242;BME280;22283;42.748;12.732;2023-03-29T18:07:32;98993.94;;;10.70;68.96
36242;BME280;22283;42.748;12.732;2023-03-29T18:12:32;98989.59;;;10.69;69.58
36242;BME280;22283;42.748;12.732;2023-03-29T18:17:33;98991.06;;;10.59;70.47
36242;BME280;22283;42.748;12.732;2023-03-29T18:22:35;99004.84;;;10.50;71.66
36242;BME280;22283;42.748;12.732;2023-03-29T18:27:36;99006.72;;;10.48;72.31
36242;BME280;22283;42.748;12.732;2023-03-29T18:32:37;99002.56;;;10.44;73.02
36242;BME280;22283;42.748;12.732;2023-03-29T18:37:41;99014.81;;;10.45;73.44
36242;BME280;22283;42.748;12.732;2023-03-29T18:42:42;99014.34;;;10.38;74.24
36242;BME280;22283;42.748;12.732;2023-03-29T18:47:43;99029.03;;;10.28;75.36
36242;BME280;22283;42.748;12.732;2023-03-29T18:52:44;99033.31;;;10.30;75.61
36242;BME280;22283;42.748;12.732;2023-03-29T18:57:47;99031.75;;;10.42;76.54
36242;BME280;22283;42.748;12.732;2023-03-29T19:02:48;99035.66;;;10.51;75.71
36242;BME280;22283;42.748;12.732;2023-03-29T19:07:50;99043.69;;;10.49;75.95
36242;BME280;22283;42.748;12.732;2023-03-29T19:12:54;99057.66;;;10.51;76.22
36242;BME280;22283;42.748;12.732;2023-03-29T19:17:55;99044.53;;;10.50;76.50
36242;BME280;22283;42.748;12.732;2023-03-29T19:22:56;99051.16;;;10.57;76.65
36242;BME280;22283;42.748;12.732;2023-03-29T19:27:57;99068.53;;;10.47;77.88
36242;BME280;22283;42.748;12.732;2023-03-29T19:32:58;99065.47;;;10.39;79.02
36242;BME280;22283;42.748;12.732;2023-03-29T19:37:59;99076.28;;;10.18;80.45
36242;BME280;22283;42.748;12.732;2023-03-29T19:43:00;99069.97;;;10.05;81.62
36242;BME280;22283;42.748;12.732;2023-03-29T19:48:00;99069.28;;;9.85;83.35
36242;BME280;22283;42.748;12.732;2023-03-29T19:53:02;99077.13;;;9.71;84.05
36242;BME280;22283;42.748;12.732;2023-03-29T19:58:05;99082.16;;;9.60;85.54
36242;BME280;22283;42.748;12.732;2023-03-29T20:03:06;99092.28;;;9.52;86.68
36242;BME280;22283;42.748;12.732;2023-03-29T20:08:10;99094.47;;;9.44;87.97
36242;BME280;22283;42.748;12.732;2023-03-29T20:13:12;99103.81;;;9.33;89.10
36242;BME280;22283;42.748;12.732;2023-03-29T20:18:12;99093.25;;;9.33;90.61
36242;BME280;22283;42.748;12.732;2023-03-29T20:23:15;99099.31;;;9.35;90.81
36242;BME280;22283;42.748;12.732;2023-03-29T20:28:17;99093.56;;;9.27;91.82
36242;BME280;22283;42.748;12.732;2023-03-29T20:33:19;99095.75;;;9.19;92.91
36242;BME280;22283;42.748;12.732;2023-03-29T20:38:20;99095.13;;;9.14;94.10
36242;BME280;22283;42.748;12.732;2023-03-29T20:43:21;99099.09;;;9.05;94.07
36242;BME280;22283;42.748;12.732;2023-03-29T20:48:23;99109.19;;;8.97;95.01
36242;BME280;22283;42.748;12.732;2023-03-29T20:53:29;99115.66;;;8.92;96.43
36242;BME280;22283;42.748;12.732;2023-03-29T20:58:33;99111.00;;;8.97;96.73
36242;BME280;22283;42.748;12.732;2023-03-29T21:03:35;99119.31;;;8.89;97.33
36242;BME280;22283;42.748;12.732;2023-03-29T21:08:35;99119.53;;;8.84;98.68
36242;BME280;22283;42.748;12.732;2023-03-29T21:13:39;99112.09;;;8.75;98.94
36242;BME280;22283;42.748;12.732;2023-03-29T21:18:40;99114.94;;;8.71;99.67
36242;BME280;22283;42.748;12.732;2023-03-29T21:23:41;99120.28;;;8.69;99.99
36242;BME280;22283;42.748;12.732;2023-03-29T21:28:41;99105.56;;;8.65;100.00
36242;BME280;22283;42.748;12.732;2023-03-29T21:33:42;99109.13;;;8.64;100.00
36242;BME280;22283;42.748;12.732;2023-03-29T21:38:43;99105.69;;;8.62;100.00
36242;BME280;22283;42.748;12.732;2023-03-29T21:43:43;99119.69;;;8.64;100.00
36242;BME280;22283;42.748;12.732;2023-03-29T21:48:44;99109.41;;;8.58;100.00
36242;BME280;22283;42.748;12.732;2023-03-29T21:53:45;99108.31;;;8.45;100.00
36242;BME280;22283;42.748;12.732;2023-03-29T21:58:46;99109.31;;;8.23;100.00
36242;BME280;22283;42.748;12.732;2023-03-29T22:03:46;99110.47;;;7.99;100.00
36242;BME280;22283;42.748;12.732;2023-03-29T22:08:47;99102.66;;;7.78;100.00
36242;BME280;22283;42.748;12.732;2023-03-29T22:13:52;99097.53;;;7.75;100.00
36242;BME280;22283;42.748;12.732;2023-03-29T22:18:53;99100.94;;;7.58;100.00
36242;BME280;22283;42.748;12.732;2023-03-29T22:23:55;99107.34;;;7.53;100.00
36242;BME280;22283;42.748;12.732;2023-03-29T22:28:57;99105.78;;;7.49;100.00
36242;BME280;22283;42.748;12.732;2023-03-29T22:33:58;99101.56;;;7.45;100.00
36242;BME280;22283;42.748;12.732;2023-03-29T22:39:00;99104.03;;;7.48;100.00
36242;BME280;22283;42.748;12.732;2023-03-29T22:44:00;99096.81;;;7.53;100.00
36242;BME280;22283;42.748;12.732;2023-03-29T22:49:01;99092.22;;;7.37;100.00
36242;BME280;22283;42.748;12.732;2023-03-29T22:54:02;99082.09;;;7.28;100.00
36242;BME280;22283;42.748;12.732;2023-03-29T22:59:02;99082.38;;;7.22;100.00
36242;BME280;22283;42.748;12.732;2023-03-29T23:04:03;99084.63;;;7.11;100.00
36242;BME280;22283;42.748;12.732;2023-03-29T23:09:04;99076.13;;;7.25;100.00
36242;BME280;22283;42.748;12.732;2023-03-29T23:14:05;99080.09;;;7.54;100.00
36242;BME280;22283;42.748;12.732;2023-03-29T23:19:06;99070.75;;;7.47;100.00
36242;BME280;22283;42.748;12.732;2023-03-29T23:24:07;99074.56;;;7.39;100.00
36242;BME280;22283;42.748;12.732;2023-03-29T23:29:08;99068.25;;;7.44;100.00
36242;BME280;22283;42.748;12.732;2023-03-29T23:34:09;99074.25;;;7.66;100.00
36242;BME280;22283;42.748;12.732;2023-03-29T23:39:10;99072.75;;;7.79;100.00
36242;BME280;22283;42.748;12.732;2023-03-29T23:44:10;99068.63;;;7.93;100.00
36242;BME280;22283;42.748;12.732;2023-03-29T23:49:11;99060.00;;;8.08;100.00
36242;BME280;22283;42.748;12.732;2023-03-29T23:54:12;99049.75;;;8.19;100.00
36242;BME280;22283;42.748;12.732;2023-03-29T23:59:14;99049.47;;;8.25;100.00
